createdAt,value
2019-03-31T00:01:07.991Z,58.04
2019-03-31T00:01:58.574Z,57.51
2019-03-31T00:02:57.570Z,57.71
2019-03-31T00:03:57.557Z,57.61
2019-03-31T00:04:57.553Z,58.83
2019-03-31T00:05:57.536Z,59.24
2019-03-31T00:06:57.521Z,58.25
2019-03-31T00:07:57.515Z,57.95
2019-03-31T00:08:57.503Z,57.64
2019-03-31T00:09:57.497Z,57.74
2019-03-31T00:11:00.507Z,57.95
2019-03-31T00:11:57.467Z,58.96
2019-03-31T00:12:57.460Z,57.43
2019-03-31T00:13:57.450Z,57.95
2019-03-31T00:14:57.447Z,57.77
2019-03-31T00:15:57.420Z,57.34
2019-03-31T00:16:57.413Z,56.95
2019-03-31T00:17:57.402Z,57.95
2019-03-31T00:18:57.390Z,57.56
2019-03-31T00:19:57.396Z,57.13
2019-03-31T00:20:57.365Z,57.74
2019-03-31T00:21:57.357Z,57.13
2019-03-31T00:22:57.343Z,57.67
2019-03-31T00:23:57.337Z,57.03
2019-03-31T00:24:57.334Z,57.06
2019-03-31T00:25:57.393Z,57.95
2019-03-31T00:26:57.298Z,57.74
2019-03-31T00:27:57.292Z,57.26
2019-03-31T00:28:57.282Z,58.28
2019-03-31T00:29:57.279Z,57.54
2019-03-31T00:30:57.254Z,57.46
2019-03-31T00:31:57.243Z,57.23
2019-03-31T00:32:57.234Z,57.56
2019-03-31T00:33:57.223Z,57.97
2019-03-31T00:34:57.221Z,57.87
2019-03-31T00:35:57.205Z,58.07
2019-03-31T00:36:57.188Z,57.97
2019-03-31T00:37:57.179Z,57.26
2019-03-31T00:38:57.169Z,57.26
2019-03-31T00:39:57.176Z,57.97
2019-03-31T00:40:57.151Z,58.07
2019-03-31T00:41:57.134Z,57.46
2019-03-31T00:42:57.121Z,57.90
2019-03-31T00:43:57.111Z,58.48
2019-03-31T00:44:57.112Z,57.67
2019-03-31T00:45:57.089Z,57.49
2019-03-31T00:46:57.080Z,58.28
2019-03-31T00:47:57.066Z,58.38
2019-03-31T00:48:57.058Z,57.56
2019-03-31T00:49:57.086Z,58.20
2019-03-31T00:50:57.033Z,57.49
2019-03-31T00:51:57.025Z,57.26
2019-03-31T00:52:57.009Z,57.69
2019-03-31T00:53:56.998Z,58.38
2019-03-31T00:54:57.000Z,57.46
2019-03-31T00:55:56.980Z,57.26
2019-03-31T00:56:56.963Z,57.46
2019-03-31T00:57:56.961Z,57.87
2019-03-31T00:58:56.941Z,57.36
2019-03-31T00:59:56.940Z,57.56
2019-03-31T01:00:56.925Z,57.46
2019-03-31T01:01:56.907Z,58.07
2019-03-31T01:02:56.899Z,57.16
2019-03-31T01:03:56.887Z,57.16
2019-03-31T01:04:56.883Z,58.07
2019-03-31T01:05:56.864Z,57.79
2019-03-31T01:06:56.851Z,57.49
2019-03-31T01:07:56.841Z,57.29
2019-03-31T01:08:56.833Z,57.36
2019-03-31T01:09:56.829Z,57.87
2019-03-31T01:10:56.809Z,57.90
2019-03-31T01:11:56.802Z,58.17
2019-03-31T01:12:56.791Z,58.51
2019-03-31T01:13:56.774Z,57.49
2019-03-31T01:14:56.771Z,57.36
2019-03-31T01:15:56.748Z,57.97
2019-03-31T01:16:56.740Z,57.56
2019-03-31T01:17:56.727Z,57.49
2019-03-31T01:18:56.722Z,57.56
2019-03-31T01:19:56.715Z,57.59
2019-03-31T01:20:56.709Z,57.59
2019-03-31T01:21:56.719Z,57.26
2019-03-31T01:22:56.681Z,58.92
2019-03-31T01:23:56.664Z,58.40
2019-03-31T01:24:56.652Z,59.22
2019-03-31T01:25:56.657Z,59.12
2019-03-31T01:26:56.630Z,58.20
2019-03-31T01:27:56.618Z,59.22
2019-03-31T01:28:56.607Z,59.53
2019-03-31T01:29:56.599Z,58.92
2019-03-31T01:30:56.593Z,59.32
2019-03-31T01:31:56.577Z,59.01
2019-03-31T01:32:56.564Z,58.51
2019-03-31T01:33:56.551Z,59.42
2019-03-31T01:34:56.539Z,59.22
2019-03-31T01:35:56.604Z,59.14
2019-03-31T01:36:56.524Z,60.03
2019-03-31T01:37:56.532Z,59.66
2019-03-31T01:38:56.497Z,59.01
2019-03-31T01:39:56.497Z,59.75
2019-03-31T01:40:56.491Z,59.45
2019-03-31T01:41:56.469Z,59.22
2019-03-31T01:42:56.455Z,59.42
2019-03-31T01:43:56.443Z,59.42
2019-03-31T01:44:56.429Z,59.05
2019-03-31T01:45:56.433Z,59.42
2019-03-31T01:46:56.408Z,60.27
2019-03-31T01:47:56.412Z,59.55
2019-03-31T01:48:56.389Z,58.94
2019-03-31T01:49:56.382Z,60.16
2019-03-31T01:50:56.375Z,59.66
2019-03-31T01:51:56.380Z,59.75
2019-03-31T01:52:56.343Z,59.35
2019-03-31T01:53:56.341Z,59.05
2019-03-31T01:54:56.319Z,60.27
2019-03-31T01:55:56.318Z,59.86
2019-03-31T01:56:56.310Z,59.66
2019-03-31T01:57:56.287Z,59.75
2019-03-31T01:58:56.286Z,59.75
2019-03-31T01:59:56.272Z,59.99
2019-03-31T02:00:56.269Z,59.99
2019-03-31T02:02:03.967Z,60.39
2019-03-31T02:02:57.235Z,60.19
2019-03-31T02:03:56.223Z,60.60
2019-03-31T02:04:56.214Z,60.57
2019-03-31T02:05:56.212Z,60.91
2019-03-31T02:06:56.193Z,61.21
2019-03-31T02:07:56.178Z,61.00
2019-03-31T02:08:56.173Z,60.47
2019-03-31T02:09:56.159Z,60.77
2019-03-31T02:10:56.159Z,60.39
2019-03-31T02:11:56.132Z,61.21
2019-03-31T02:12:56.123Z,61.52
2019-03-31T02:13:56.119Z,62.02
2019-03-31T02:14:56.097Z,61.52
2019-03-31T02:15:56.116Z,61.61
2019-03-31T02:16:56.081Z,61.21
2019-03-31T02:17:56.064Z,61.21
2019-03-31T02:18:56.057Z,61.31
2019-03-31T02:19:56.047Z,61.11
2019-03-31T02:20:56.070Z,61.21
2019-03-31T02:21:56.031Z,61.21
2019-03-31T02:22:56.017Z,61.31
2019-03-31T02:23:56.003Z,60.91
2019-03-31T02:24:55.995Z,61.75
2019-03-31T02:25:55.976Z,60.91
2019-03-31T02:26:55.987Z,61.31
2019-03-31T02:27:55.952Z,61.21
2019-03-31T02:28:55.942Z,61.31
2019-03-31T02:29:55.936Z,62.16
2019-03-31T02:30:55.931Z,62.26
2019-03-31T02:31:55.926Z,62.16
2019-03-31T02:32:55.897Z,61.65
2019-03-31T02:33:55.887Z,62.26
2019-03-31T02:34:55.893Z,61.75
2019-03-31T02:35:55.877Z,61.75
2019-03-31T02:36:55.864Z,61.95
2019-03-31T02:37:55.847Z,62.77
2019-03-31T02:38:55.855Z,62.05
2019-03-31T02:39:55.836Z,61.44
2019-03-31T02:40:55.828Z,62.26
2019-03-31T02:41:55.830Z,62.46
2019-03-31T02:42:55.796Z,62.16
2019-03-31T02:43:55.785Z,62.36
2019-03-31T02:44:55.769Z,62.46
2019-03-31T02:45:55.757Z,62.56
2019-03-31T02:46:55.769Z,62.56
2019-03-31T02:47:55.738Z,62.70
2019-03-31T02:48:55.729Z,63.20
2019-03-31T02:49:55.716Z,62.80
2019-03-31T02:50:55.705Z,63.03
2019-03-31T02:51:55.707Z,62.93
2019-03-31T02:52:55.682Z,63.44
2019-03-31T02:53:55.675Z,63.51
2019-03-31T02:54:55.665Z,63.75
2019-03-31T02:55:55.650Z,63.64
2019-03-31T02:56:55.652Z,63.85
2019-03-31T02:57:55.633Z,63.95
2019-03-31T02:58:55.615Z,63.95
2019-03-31T02:59:55.605Z,63.85
2019-03-31T03:00:55.604Z,64.15
2019-03-31T03:01:55.599Z,63.95
2019-03-31T03:02:55.574Z,64.87
2019-03-31T03:03:55.560Z,64.05
2019-03-31T03:04:55.560Z,63.67
2019-03-31T03:05:55.538Z,63.95
2019-03-31T03:06:55.542Z,64.46
2019-03-31T03:07:55.517Z,64.46
2019-03-31T03:08:55.518Z,64.39
2019-03-31T03:09:55.501Z,64.90
2019-03-31T03:10:55.486Z,64.66
2019-03-31T03:11:55.486Z,64.69
2019-03-31T03:12:55.469Z,65.00
2019-03-31T03:13:55.454Z,64.90
2019-03-31T03:14:55.445Z,65.00
2019-03-31T03:15:55.434Z,65.10
2019-03-31T03:16:55.440Z,65.00
2019-03-31T03:17:55.416Z,64.90
2019-03-31T03:18:55.405Z,65.00
2019-03-31T03:19:55.393Z,64.52
2019-03-31T03:20:55.377Z,64.39
2019-03-31T03:21:55.408Z,65.10
2019-03-31T03:22:55.359Z,65.00
2019-03-31T03:23:55.351Z,65.20
2019-03-31T03:24:55.333Z,65.31
2019-03-31T03:25:56.805Z,65.31
2019-03-31T03:26:55.315Z,65.31
2019-03-31T03:27:55.320Z,64.93
2019-03-31T03:28:55.300Z,65.20
2019-03-31T03:29:55.284Z,65.20
2019-03-31T03:30:55.716Z,65.23
2019-03-31T03:31:55.261Z,65.00
2019-03-31T03:33:13.363Z,65.41
2019-03-31T03:33:56.265Z,65.41
2019-03-31T03:34:55.233Z,65.00
2019-03-31T03:35:55.223Z,65.23
2019-03-31T03:36:55.210Z,65.64
2019-03-31T03:37:55.203Z,65.13
2019-03-31T03:38:55.180Z,65.64
2019-03-31T03:39:55.180Z,66.05
2019-03-31T03:40:55.164Z,66.15
2019-03-31T03:41:55.154Z,66.25
2019-03-31T03:42:55.148Z,65.23
2019-03-31T03:43:59.657Z,66.36
2019-03-31T03:44:56.121Z,66.36
2019-03-31T03:45:55.105Z,66.36
2019-03-31T03:46:55.096Z,66.25
2019-03-31T03:47:55.093Z,66.25
2019-03-31T03:48:55.141Z,65.23
2019-03-31T03:49:55.066Z,66.56
2019-03-31T03:50:55.068Z,66.59
2019-03-31T03:51:55.047Z,66.39
2019-03-31T03:52:55.056Z,66.28
2019-03-31T03:53:55.021Z,66.59
2019-03-31T03:54:55.010Z,67.82
2019-03-31T03:55:55.000Z,66.18
2019-03-31T03:56:54.991Z,65.47
2019-03-31T03:57:54.988Z,66.69
2019-03-31T03:58:54.968Z,67.10
2019-03-31T03:59:54.959Z,66.90
2019-03-31T04:00:54.942Z,66.49
2019-03-31T04:01:54.937Z,65.67
2019-03-31T04:02:54.931Z,67.00
2019-03-31T04:03:54.909Z,66.80
2019-03-31T04:04:54.901Z,67.10
2019-03-31T04:05:54.890Z,66.90
2019-03-31T04:06:54.876Z,66.69
2019-03-31T04:07:54.878Z,67.30
2019-03-31T04:08:54.860Z,67.41
2019-03-31T04:09:54.843Z,66.90
2019-03-31T04:10:54.838Z,68.02
2019-03-31T04:11:54.821Z,67.30
2019-03-31T04:12:54.830Z,67.30
2019-03-31T04:13:54.802Z,67.30
2019-03-31T04:14:54.790Z,67.21
2019-03-31T04:15:54.778Z,67.30
2019-03-31T04:16:54.772Z,66.90
2019-03-31T04:17:54.820Z,67.41
2019-03-31T04:18:54.756Z,66.90
2019-03-31T04:19:54.740Z,67.41
2019-03-31T04:20:54.725Z,66.39
2019-03-31T04:21:54.721Z,67.41
2019-03-31T04:22:54.713Z,66.90
2019-03-31T04:23:54.699Z,66.49
2019-03-31T04:24:54.681Z,67.21
2019-03-31T04:25:54.676Z,67.41
2019-03-31T04:26:54.657Z,66.83
2019-03-31T04:27:54.656Z,67.00
2019-03-31T04:28:54.641Z,67.34
2019-03-31T04:29:54.629Z,67.13
2019-03-31T04:30:54.615Z,67.44
2019-03-31T04:31:54.610Z,67.34
2019-03-31T04:32:54.604Z,67.34
2019-03-31T04:33:54.595Z,68.05
2019-03-31T04:34:54.569Z,66.93
2019-03-31T04:35:54.558Z,67.95
2019-03-31T04:36:54.550Z,66.83
2019-03-31T04:37:54.546Z,67.54
2019-03-31T04:38:54.526Z,67.24
2019-03-31T04:39:54.524Z,67.65
2019-03-31T04:40:54.506Z,67.24
2019-03-31T04:41:54.505Z,67.44
2019-03-31T04:42:54.491Z,66.42
2019-03-31T04:43:54.471Z,68.08
2019-03-31T04:44:54.458Z,67.88
2019-03-31T04:45:54.463Z,67.57
2019-03-31T04:46:54.440Z,67.44
2019-03-31T04:47:54.437Z,67.16
2019-03-31T04:48:54.418Z,67.27
2019-03-31T04:49:54.403Z,67.78
2019-03-31T04:50:54.393Z,67.34
2019-03-31T04:51:54.385Z,67.98
2019-03-31T04:52:54.389Z,66.66
2019-03-31T04:53:54.365Z,67.95
2019-03-31T04:54:54.349Z,67.68
2019-03-31T04:55:54.339Z,67.98
2019-03-31T04:56:54.337Z,67.37
2019-03-31T04:57:54.328Z,67.34
2019-03-31T04:58:54.303Z,66.66
2019-03-31T04:59:54.294Z,67.34
2019-03-31T05:00:54.284Z,67.37
2019-03-31T05:01:54.272Z,67.57
2019-03-31T05:02:54.276Z,67.98
2019-03-31T05:04:04.371Z,67.47
2019-03-31T05:04:55.238Z,67.78
2019-03-31T05:05:54.231Z,67.37
2019-03-31T05:06:54.216Z,66.75
2019-03-31T05:07:54.238Z,67.57
2019-03-31T05:08:54.194Z,67.27
2019-03-31T05:09:54.189Z,67.98
2019-03-31T05:10:54.179Z,67.37
2019-03-31T05:11:54.160Z,67.16
2019-03-31T05:12:54.150Z,67.37
2019-03-31T05:13:54.151Z,66.66
2019-03-31T05:14:54.129Z,67.47
2019-03-31T05:15:54.117Z,67.57
2019-03-31T05:16:54.114Z,67.88
2019-03-31T05:17:54.097Z,67.68
2019-03-31T05:18:54.100Z,67.98
2019-03-31T05:19:54.074Z,67.88
2019-03-31T05:20:54.066Z,67.16
2019-03-31T05:21:54.057Z,67.88
2019-03-31T05:22:54.125Z,67.81
2019-03-31T05:23:54.039Z,68.08
2019-03-31T05:24:54.026Z,67.98
2019-03-31T05:25:54.013Z,67.88
2019-03-31T05:26:53.999Z,67.98
2019-03-31T05:27:53.996Z,67.57
2019-03-31T05:28:53.991Z,67.78
2019-03-31T05:29:53.965Z,68.60
2019-03-31T05:30:53.953Z,67.78
2019-03-31T05:31:53.942Z,67.98
2019-03-31T05:32:53.932Z,67.71
2019-03-31T05:33:53.936Z,68.52
2019-03-31T05:34:53.911Z,68.32
2019-03-31T05:35:53.900Z,69.14
2019-03-31T05:36:53.887Z,68.19
2019-03-31T05:37:53.880Z,68.63
2019-03-31T05:38:53.877Z,68.93
2019-03-31T05:39:53.867Z,68.84
2019-03-31T05:40:53.844Z,68.52
2019-03-31T05:41:53.834Z,67.71
2019-03-31T05:42:53.832Z,69.24
2019-03-31T05:44:05.201Z,68.32
2019-03-31T05:44:54.801Z,68.84
2019-03-31T05:45:53.787Z,69.04
2019-03-31T05:46:53.779Z,68.52
2019-03-31T05:47:53.766Z,69.04
2019-03-31T05:48:53.770Z,68.12
2019-03-31T05:49:53.747Z,67.50
2019-03-31T05:50:53.740Z,68.73
2019-03-31T05:51:53.723Z,68.01
2019-03-31T05:52:53.712Z,68.32
2019-03-31T05:53:53.712Z,67.68
2019-03-31T05:54:53.691Z,67.71
2019-03-31T05:55:53.685Z,68.70
2019-03-31T05:56:53.668Z,68.01
2019-03-31T05:57:53.655Z,67.71
2019-03-31T05:58:53.657Z,68.15
2019-03-31T05:59:53.635Z,67.94
2019-03-31T06:00:53.625Z,69.00
2019-03-31T06:01:53.615Z,68.49
2019-03-31T06:02:53.601Z,69.44
2019-03-31T06:03:53.600Z,69.24
2019-03-31T06:04:53.581Z,68.93
2019-03-31T06:05:53.570Z,69.24
2019-03-31T06:06:53.560Z,68.93
2019-03-31T06:07:53.547Z,69.17
2019-03-31T06:08:53.549Z,69.24
2019-03-31T06:09:53.527Z,68.93
2019-03-31T06:11:02.960Z,69.54
2019-03-31T06:13:10.047Z,69.34
2019-03-31T06:14:19.792Z,70.09
2019-03-31T06:15:19.315Z,69.75
2019-03-31T06:16:10.019Z,69.68
2019-03-31T06:17:10.013Z,70.19
2019-03-31T06:18:10.003Z,69.68
2019-03-31T06:19:09.989Z,69.17
2019-03-31T06:20:09.970Z,69.47
2019-03-31T06:21:09.965Z,69.17
2019-03-31T06:22:09.950Z,69.13
2019-03-31T06:23:09.937Z,68.52
2019-03-31T06:24:10.012Z,68.52
2019-03-31T06:25:09.919Z,68.11
2019-03-31T06:26:09.907Z,68.41
2019-03-31T06:27:09.901Z,67.77
2019-03-31T06:28:09.891Z,67.97
2019-03-31T06:29:09.901Z,67.84
2019-03-31T06:30:19.326Z,67.64
2019-03-31T06:31:19.377Z,67.64
2019-03-31T06:32:18.874Z,67.50
2019-03-31T06:33:18.903Z,66.55
2019-03-31T06:34:18.435Z,66.62
2019-03-31T06:35:09.811Z,65.50
2019-03-31T06:36:09.802Z,64.99
2019-03-31T06:37:09.794Z,64.65
2019-03-31T06:38:09.782Z,64.14
2019-03-31T06:39:09.777Z,64.42
2019-03-31T06:40:09.771Z,64.01
2019-03-31T06:41:18.919Z,63.16
2019-03-31T06:42:09.794Z,63.54
2019-03-31T06:43:09.728Z,62.52
2019-03-31T06:44:09.722Z,62.42
2019-03-31T06:45:09.702Z,62.08
2019-03-31T06:46:09.696Z,61.68
2019-03-31T06:47:09.689Z,61.78
2019-03-31T06:48:09.670Z,61.75
2019-03-31T06:49:09.671Z,60.91
2019-03-31T06:50:09.648Z,60.80
2019-03-31T06:51:09.637Z,60.39
2019-03-31T06:52:09.627Z,60.37
2019-03-31T06:53:09.616Z,59.45
2019-03-31T06:54:09.625Z,59.45
2019-03-31T06:55:09.597Z,59.32
2019-03-31T06:56:09.585Z,59.12
2019-03-31T06:57:09.578Z,59.22
2019-03-31T06:58:09.560Z,58.71
2019-03-31T06:59:09.564Z,58.92
2019-03-31T07:00:09.540Z,57.67
2019-03-31T07:01:09.538Z,57.77
2019-03-31T07:02:09.518Z,57.23
2019-03-31T07:03:09.507Z,56.01
2019-03-31T07:04:09.505Z,56.52
2019-03-31T07:05:09.488Z,55.81
2019-03-31T07:06:09.476Z,56.12
2019-03-31T07:07:09.469Z,56.49
2019-03-31T07:08:09.456Z,55.81
2019-03-31T07:09:09.451Z,56.80
2019-03-31T07:10:09.433Z,55.88
2019-03-31T07:11:09.421Z,55.48
2019-03-31T07:12:09.410Z,55.58
2019-03-31T07:13:09.417Z,55.78
2019-03-31T07:14:09.399Z,55.68
2019-03-31T07:15:09.389Z,55.48
2019-03-31T07:16:09.370Z,55.35
2019-03-31T07:17:09.379Z,54.33
2019-03-31T07:18:09.345Z,54.24
2019-03-31T07:19:09.346Z,54.84
2019-03-31T07:20:09.323Z,54.82
2019-03-31T07:21:09.315Z,54.31
2019-03-31T07:22:09.303Z,54.31
2019-03-31T07:23:09.296Z,53.47
2019-03-31T07:24:09.303Z,53.27
2019-03-31T07:25:09.269Z,54.49
2019-03-31T07:26:09.260Z,52.84
2019-03-31T07:27:09.248Z,53.55
2019-03-31T07:28:09.248Z,53.65
2019-03-31T07:29:09.277Z,52.84
2019-03-31T07:30:09.216Z,51.72
2019-03-31T07:31:09.205Z,52.58
2019-03-31T07:32:09.199Z,53.22
2019-03-31T07:33:09.185Z,54.66
2019-03-31T07:34:09.174Z,53.85
2019-03-31T07:35:18.358Z,54.57
2019-03-31T07:36:10.151Z,53.78
2019-03-31T07:37:09.140Z,54.90
2019-03-31T07:38:09.136Z,55.43
2019-03-31T07:39:09.334Z,55.73
2019-03-31T07:40:09.341Z,56.57
2019-03-31T07:41:13.008Z,56.68
2019-03-31T07:42:09.258Z,56.68
2019-03-31T07:43:09.207Z,55.96
2019-03-31T07:44:09.072Z,56.68
2019-03-31T07:45:09.065Z,56.88
2019-03-31T07:46:09.044Z,55.76
2019-03-31T07:47:09.033Z,56.57
2019-03-31T07:48:09.035Z,56.77
2019-03-31T07:49:09.015Z,57.52
2019-03-31T07:50:09.010Z,57.29
2019-03-31T07:51:08.994Z,58.20
2019-03-31T07:52:08.980Z,57.82
2019-03-31T07:53:09.072Z,58.13
2019-03-31T07:54:08.957Z,57.52
2019-03-31T07:55:08.959Z,58.23
2019-03-31T07:56:08.945Z,57.79
2019-03-31T07:57:08.928Z,57.36
2019-03-31T07:58:08.916Z,57.18
2019-03-31T07:59:08.907Z,57.29
2019-03-31T08:00:08.904Z,57.18
2019-03-31T08:01:08.890Z,57.59
2019-03-31T08:02:08.873Z,57.18
2019-03-31T08:03:08.860Z,57.39
2019-03-31T08:04:08.874Z,57.52
2019-03-31T08:05:08.854Z,56.77
2019-03-31T08:06:08.829Z,57.29
2019-03-31T08:07:08.822Z,56.47
2019-03-31T08:08:08.825Z,57.08
2019-03-31T08:09:08.794Z,57.29
2019-03-31T08:10:08.803Z,57.39
2019-03-31T08:11:08.790Z,56.98
2019-03-31T08:12:08.765Z,57.18
2019-03-31T08:13:08.753Z,57.42
2019-03-31T08:14:08.742Z,56.60
2019-03-31T08:15:08.743Z,57.01
2019-03-31T08:16:08.719Z,56.29
2019-03-31T08:17:08.721Z,55.76
2019-03-31T08:18:08.700Z,55.86
2019-03-31T08:19:08.690Z,55.86
2019-03-31T08:20:08.701Z,55.55
2019-03-31T08:21:08.666Z,55.73
2019-03-31T08:22:08.656Z,55.83
2019-03-31T08:23:08.690Z,55.33
2019-03-31T08:24:08.637Z,55.20
2019-03-31T08:25:08.635Z,54.66
2019-03-31T08:26:09.421Z,54.33
2019-03-31T08:27:08.604Z,54.16
2019-03-31T08:28:08.590Z,53.83
2019-03-31T08:29:08.585Z,53.30
2019-03-31T08:30:08.579Z,53.06
2019-03-31T08:31:08.557Z,52.97
2019-03-31T08:32:08.552Z,53.06
2019-03-31T08:33:08.536Z,53.06
2019-03-31T08:34:08.525Z,52.97
2019-03-31T08:35:08.530Z,52.66
2019-03-31T08:36:08.503Z,52.58
2019-03-31T08:37:08.494Z,51.87
2019-03-31T08:38:08.490Z,51.90
2019-03-31T08:39:08.497Z,52.73
2019-03-31T08:40:08.470Z,54.16
2019-03-31T08:41:08.454Z,54.66
2019-03-31T08:42:08.441Z,54.08
2019-03-31T08:43:08.429Z,53.67
2019-03-31T08:44:08.421Z,54.21
2019-03-31T08:45:08.416Z,54.69
2019-03-31T08:46:08.397Z,54.18
2019-03-31T08:47:08.389Z,55.02
2019-03-31T08:48:08.375Z,55.43
2019-03-31T08:49:08.365Z,55.22
2019-03-31T08:50:08.362Z,55.53
2019-03-31T08:51:08.345Z,55.63
2019-03-31T08:52:08.331Z,55.02
2019-03-31T08:53:08.320Z,55.43
2019-03-31T08:54:08.309Z,55.94
2019-03-31T08:55:08.320Z,55.94
2019-03-31T08:56:08.850Z,55.73
2019-03-31T08:57:08.278Z,55.63
2019-03-31T08:58:08.282Z,56.45
2019-03-31T08:59:08.259Z,55.73
2019-03-31T09:00:08.295Z,55.43
2019-03-31T09:01:08.241Z,55.22
2019-03-31T09:02:08.224Z,55.73
2019-03-31T09:03:08.212Z,55.76
2019-03-31T09:04:08.209Z,55.86
2019-03-31T09:05:08.193Z,55.86
2019-03-31T09:06:08.191Z,55.96
2019-03-31T09:07:08.170Z,56.57
2019-03-31T09:08:08.160Z,55.86
2019-03-31T09:09:08.149Z,55.89
2019-03-31T09:10:08.142Z,55.79
2019-03-31T09:11:08.140Z,55.99
2019-03-31T09:12:08.117Z,55.91
2019-03-31T09:13:08.107Z,55.58
2019-03-31T09:14:08.096Z,56.60
2019-03-31T09:15:08.087Z,56.60
2019-03-31T09:16:08.086Z,56.81
2019-03-31T09:17:08.062Z,56.50
2019-03-31T09:18:08.051Z,57.14
2019-03-31T09:19:08.041Z,57.24
2019-03-31T09:20:08.029Z,57.44
2019-03-31T09:21:08.027Z,57.14
2019-03-31T09:22:08.007Z,57.54
2019-03-31T09:23:07.999Z,57.44
2019-03-31T09:24:08.015Z,57.34
2019-03-31T09:25:07.983Z,57.67
2019-03-31T09:26:07.979Z,57.67
2019-03-31T09:27:07.955Z,58.08
2019-03-31T09:28:07.973Z,57.57
2019-03-31T09:29:07.933Z,58.62
2019-03-31T09:30:07.930Z,58.28
2019-03-31T09:31:07.924Z,57.60
2019-03-31T09:32:07.901Z,58.59
2019-03-31T09:33:07.890Z,58.82
2019-03-31T09:34:07.882Z,58.72
2019-03-31T09:35:07.867Z,59.12
2019-03-31T09:36:16.038Z,59.53
2019-03-31T09:37:08.844Z,59.33
2019-03-31T09:38:07.841Z,59.53
2019-03-31T09:39:07.826Z,59.84
2019-03-31T09:40:07.814Z,60.05
2019-03-31T09:41:07.814Z,59.53
2019-03-31T09:42:07.794Z,59.43
2019-03-31T09:43:07.785Z,60.35
2019-03-31T09:44:07.774Z,60.86
2019-03-31T09:45:07.761Z,60.35
2019-03-31T09:46:07.804Z,59.43
2019-03-31T09:47:07.737Z,59.53
2019-03-31T09:48:07.726Z,59.12
2019-03-31T09:49:07.717Z,59.23
2019-03-31T09:50:07.706Z,58.75
2019-03-31T09:51:07.696Z,57.70
2019-03-31T09:52:07.696Z,58.21
2019-03-31T09:53:07.676Z,57.39
2019-03-31T09:54:07.662Z,57.29
2019-03-31T09:55:07.651Z,58.21
2019-03-31T09:56:07.644Z,58.11
2019-03-31T09:57:07.641Z,57.73
2019-03-31T09:58:07.621Z,57.29
2019-03-31T09:59:07.613Z,57.70
2019-03-31T10:00:07.600Z,57.62
2019-03-31T10:01:08.119Z,58.62
2019-03-31T10:02:07.597Z,57.93
2019-03-31T10:03:07.565Z,58.95
2019-03-31T10:04:07.555Z,58.72
2019-03-31T10:05:07.542Z,58.85
2019-03-31T10:06:10.972Z,58.31
2019-03-31T10:07:07.539Z,57.80
2019-03-31T10:08:07.521Z,58.92
2019-03-31T10:09:07.503Z,57.60
2019-03-31T10:10:07.491Z,57.57
2019-03-31T10:11:07.481Z,57.04
2019-03-31T10:12:07.476Z,57.95
2019-03-31T10:13:07.466Z,57.95
2019-03-31T10:14:07.446Z,57.95
2019-03-31T10:15:07.435Z,56.60
2019-03-31T10:16:07.424Z,57.18
2019-03-31T10:17:07.427Z,53.25
2019-03-31T10:18:07.402Z,53.22
2019-03-31T10:19:07.391Z,52.44
2019-03-31T10:20:07.384Z,53.06
2019-03-31T10:21:07.374Z,54.21
2019-03-31T10:22:07.396Z,51.65
2019-03-31T10:23:07.348Z,52.69
2019-03-31T10:24:07.338Z,53.30
2019-03-31T10:25:07.327Z,51.87
2019-03-31T10:26:07.343Z,52.91
2019-03-31T10:27:07.306Z,52.30
2019-03-31T10:28:07.308Z,51.79
2019-03-31T10:29:07.288Z,52.00
2019-03-31T10:30:07.275Z,52.73
2019-03-31T10:31:07.265Z,52.33
2019-03-31T10:32:07.268Z,51.92
2019-03-31T10:33:07.257Z,52.03
2019-03-31T10:34:07.232Z,51.92
2019-03-31T10:35:07.219Z,52.86
2019-03-31T10:36:07.216Z,50.93
2019-03-31T10:37:07.197Z,52.35
2019-03-31T10:38:07.200Z,52.37
2019-03-31T10:39:07.179Z,52.68
2019-03-31T10:40:07.170Z,52.68
2019-03-31T10:41:07.156Z,52.50
2019-03-31T10:42:07.145Z,53.32
2019-03-31T10:43:07.144Z,52.00
2019-03-31T10:44:07.126Z,53.14
2019-03-31T10:45:07.120Z,52.22
2019-03-31T10:46:07.171Z,52.83
2019-03-31T10:47:07.092Z,52.94
2019-03-31T10:48:19.527Z,52.63
2019-03-31T10:49:08.068Z,51.95
2019-03-31T10:50:07.063Z,47.17
2019-03-31T10:51:07.054Z,44.62
2019-03-31T10:52:07.043Z,41.87
2019-03-31T10:53:07.032Z,38.86
2019-03-31T10:54:07.026Z,38.09
2019-03-31T10:55:07.005Z,36.73
2019-03-31T10:56:06.999Z,34.46
2019-03-31T10:57:06.984Z,34.01
2019-03-31T10:58:06.974Z,32.57
2019-03-31T10:59:06.972Z,31.34
2019-03-31T11:00:06.951Z,31.33
2019-03-31T11:01:06.940Z,29.20
2019-03-31T11:02:06.932Z,28.18
2019-03-31T11:03:06.920Z,30.12
2019-03-31T11:04:06.936Z,31.19
2019-03-31T11:05:06.899Z,30.83
2019-03-31T11:06:06.892Z,32.38
2019-03-31T11:07:06.877Z,33.61
2019-03-31T11:08:06.879Z,32.94
2019-03-31T11:09:06.866Z,33.87
2019-03-31T11:10:06.848Z,34.49
2019-03-31T11:11:06.835Z,34.53
2019-03-31T11:12:06.829Z,34.86
2019-03-31T11:13:06.816Z,35.97
2019-03-31T11:14:06.813Z,35.88
2019-03-31T11:15:06.792Z,36.30
2019-03-31T11:16:06.783Z,36.62
2019-03-31T11:17:06.771Z,36.42
2019-03-31T11:18:06.762Z,35.82
2019-03-31T11:19:06.794Z,36.18
2019-03-31T11:20:06.745Z,34.69
2019-03-31T11:21:06.732Z,31.49
2019-03-31T11:22:06.719Z,30.05
2019-03-31T11:23:06.709Z,31.63
2019-03-31T11:24:06.699Z,30.63
2019-03-31T11:25:19.950Z,31.01
2019-03-31T11:26:07.675Z,29.48
2019-03-31T11:27:06.681Z,29.04
2019-03-31T11:28:06.659Z,25.99
2019-03-31T11:29:06.646Z,24.18
2019-03-31T11:30:06.644Z,23.95
2019-03-31T11:31:06.630Z,24.62
2019-03-31T11:32:06.617Z,24.69
2019-03-31T11:33:07.663Z,23.21
2019-03-31T11:34:06.594Z,23.10
2019-03-31T11:35:06.598Z,23.08
2019-03-31T11:36:06.582Z,21.02
2019-03-31T11:37:13.269Z,22.74
2019-03-31T11:38:07.552Z,24.08
2019-03-31T11:39:06.544Z,25.13
2019-03-31T11:40:06.552Z,24.77
2019-03-31T11:41:06.520Z,21.35
2019-03-31T11:42:06.517Z,21.02
2019-03-31T11:43:06.508Z,20.30
2019-03-31T11:44:06.496Z,19.48
2019-03-31T11:45:06.494Z,18.59
2019-03-31T11:46:06.471Z,17.60
2019-03-31T11:47:06.467Z,16.82
2019-03-31T11:48:06.455Z,17.39
2019-03-31T11:49:06.443Z,17.66
2019-03-31T11:50:06.442Z,15.58
2019-03-31T11:51:06.430Z,16.76
2019-03-31T11:52:06.414Z,17.50
2019-03-31T11:53:06.405Z,18.09
2019-03-31T11:54:06.395Z,17.68
2019-03-31T11:55:06.413Z,16.19
2019-03-31T11:56:06.375Z,17.11
2019-03-31T11:57:06.377Z,18.14
2019-03-31T11:58:06.372Z,19.36
2019-03-31T11:59:06.396Z,20.29
2019-03-31T12:00:06.344Z,20.37
2019-03-31T12:01:06.327Z,18.67
2019-03-31T12:02:06.313Z,19.95
2019-03-31T12:03:06.304Z,19.44
2019-03-31T12:04:06.302Z,17.95
2019-03-31T12:05:06.397Z,17.56
2019-03-31T12:06:06.285Z,16.57
2019-03-31T12:07:06.266Z,17.47
2019-03-31T12:08:06.255Z,19.09
2019-03-31T12:09:06.279Z,19.92
2019-03-31T12:10:06.248Z,21.13
2019-03-31T12:11:06.227Z,21.46
2019-03-31T12:12:06.218Z,21.22
2019-03-31T12:13:06.208Z,21.24
2019-03-31T12:14:06.197Z,21.37
2019-03-31T12:15:06.197Z,18.90
2019-03-31T12:16:06.178Z,16.87
2019-03-31T12:17:06.168Z,16.83
2019-03-31T12:18:06.165Z,15.72
2019-03-31T12:19:06.148Z,14.32
2019-03-31T12:20:06.150Z,14.29
2019-03-31T12:21:06.128Z,13.50
2019-03-31T12:22:06.119Z,13.59
2019-03-31T12:23:06.111Z,14.09
2019-03-31T12:24:06.102Z,13.98
2019-03-31T12:25:06.103Z,13.09
2019-03-31T12:26:06.081Z,12.49
2019-03-31T12:27:06.078Z,11.71
2019-03-31T12:28:06.066Z,11.62
2019-03-31T12:29:06.059Z,12.30
2019-03-31T12:30:06.061Z,12.70
2019-03-31T12:31:06.047Z,12.68
2019-03-31T12:32:06.028Z,12.68
2019-03-31T12:33:06.019Z,12.01
2019-03-31T12:34:06.009Z,11.81
2019-03-31T12:35:06.026Z,11.80
2019-03-31T12:36:05.996Z,12.77
2019-03-31T12:37:06.005Z,11.21
2019-03-31T12:38:05.973Z,11.51
2019-03-31T12:39:05.979Z,11.21
2019-03-31T12:40:05.969Z,11.81
2019-03-31T12:41:05.945Z,12.40
2019-03-31T12:42:05.934Z,12.12
2019-03-31T12:43:05.926Z,13.80
2019-03-31T12:44:05.915Z,11.84
2019-03-31T12:45:05.915Z,13.82
2019-03-31T12:46:05.897Z,15.44
2019-03-31T12:47:05.883Z,15.53
2019-03-31T12:48:05.884Z,14.64
2019-03-31T12:49:05.865Z,15.75
2019-03-31T12:50:05.875Z,15.66
2019-03-31T12:51:05.843Z,17.16
2019-03-31T12:52:05.837Z,18.18
2019-03-31T12:53:05.821Z,17.80
2019-03-31T12:54:05.816Z,19.41